Terminal Aerodrome Forecast
Issued by NWS

Home | Current Version | Previous Version | Graphics & Text | Print | Product List | Glossary On
Versions: 1 2 3 4 5 6 7 8 9 10 11 12 13 14 15 16 17 18 19 20 21 22 23
764
FTUS43 KGRB 220520
TAFCWA
TAF
KCWA 220520Z 2206/2306 26006KT P6SM SCT018 OVC035
      TEMPO 2206/2210 BKN018
     FM221000 30007KT P6SM BKN020
     FM221300 31011G17KT P6SM FEW022
     FM230100 28008KT P6SM SCT050
      AMD LTD TO CLD VIS AND WIND TIL 221100=

USA.gov is the U.S. government's official web portal to all federal, state and local government web resources and services.